Time;durP1;ratioP1;P1;durP2;ratioP2;P2;SDS_P1;SDS_P2;PMS_P1;PMS_P2;Temp;Humidity;BMP_temperature;BMP_pressure;BME280_temperature;BME280_humidity;BME280_pressure;Samples;Min_cycle;Max_cycle;Signal;HPM_P1;HPM_P2
2022/01/14 00:02:24;;;;;;;;;64.67;42.67;;;;;-1.78;100.00;100959.63;6278949;20;2902546;-42
2022/01/14 00:04:52;;;;;;;;;72.50;55.00;;;;;-1.90;100.00;100949.84;6309535;20;2495150;-40
2022/01/14 00:07:20;;;;;;;;;58.50;49.00;;;;;-1.99;100.00;100953.28;6276419;20;2474401;-40
2022/01/14 00:09:48;;;;;;;;;70.00;48.00;;;;;-2.00;100.00;100958.56;6274876;20;2500372;-40
2022/01/14 00:12:24;;;;;;;;;64.00;46.67;;;;;-2.17;100.00;100946.97;6280165;20;2889090;-41
2022/01/14 00:15:12;;;;;;;;;71.00;54.50;;;;;-2.13;100.00;100936.50;6310515;20;2884636;-41
2022/01/14 00:17:40;;;;;;;;;61.00;46.50;;;;;-2.12;100.00;100927.72;6283951;20;2868031;-40
2022/01/14 00:20:11;;;;;;;;;74.00;52.50;;;;;-2.12;100.00;100917.22;6282084;20;2887843;-40
2022/01/14 00:22:39;;;;;;;;;70.00;54.50;;;;;-2.04;100.00;100923.41;6278700;20;2500390;-40
2022/01/14 00:33:16;;;;;;;;;74.50;55.00;;;;;-1.96;100.00;100912.97;6284647;20;2853464;-40
2022/01/14 00:35:46;;;;;;;;;77.33;52.67;;;;;-1.84;100.00;100920.09;6281366;20;2889990;-41
2022/01/14 00:38:15;;;;;;;;;70.50;54.00;;;;;-1.93;100.00;100914.75;6314886;20;2865863;-41
2022/01/14 00:40:44;;;;;;;;;79.50;56.00;;;;;-2.01;100.00;100915.56;6280286;20;2883710;-43
2022/01/14 00:43:15;;;;;;;;;67.33;51.67;;;;;-1.95;100.00;100927.00;6280085;20;2876317;-40
2022/01/14 00:45:45;;;;;;;;;74.00;57.50;;;;;-1.90;100.00;100920.03;6312816;20;2887747;-42
2022/01/14 00:48:13;;;;;;;;;75.00;52.00;;;;;-1.95;100.00;100924.38;6279595;20;2499256;-40
2022/01/14 00:50:44;;;;;;;;;70.00;51.50;;;;;-1.85;100.00;100916.56;6276959;20;2498194;-41
2022/01/14 00:53:13;;;;;;;;;71.50;52.50;;;;;-1.83;100.00;100913.97;6281112;20;2500283;-40
2022/01/14 00:56:04;;;;;;;;;75.00;52.00;;;;;-1.85;100.00;100910.44;6280029;20;2489872;-41
2022/01/14 01:01:21;;;;;;;;;74.50;55.00;;;;;-1.86;100.00;100903.41;6281608;20;2875315;-42
2022/01/14 01:03:49;;;;;;;;;71.00;54.00;;;;;-1.92;100.00;100901.63;6278531;20;2500395;-41
2022/01/14 01:06:18;;;;;;;;;76.00;55.50;;;;;-1.92;100.00;100898.06;6283430;20;2871266;-44
2022/01/14 01:08:50;;;;;;;;;73.00;55.00;;;;;-1.92;100.00;100892.81;6282183;20;2873193;-43
2022/01/14 01:11:25;;;;;;;;;68.00;51.00;;;;;-1.96;100.00;100893.66;6308948;20;2495610;-41
2022/01/14 01:14:04;;;;;;;;;74.00;54.00;;;;;-1.96;100.00;100898.94;6283192;20;2875665;-42
2022/01/14 01:16:33;;;;;;;;;70.00;51.50;;;;;-1.78;100.00;100896.47;6283753;20;2886749;-43
2022/01/14 01:19:02;;;;;;;;;64.00;42.50;;;;;-2.04;100.00;100888.34;6281021;20;2854488;-41
2022/01/14 01:21:30;;;;;;;;;70.00;55.00;;;;;-1.95;100.00;100888.41;6277601;20;2500307;-41
2022/01/14 01:23:59;;;;;;;;;64.50;51.00;;;;;-1.90;100.00;100885.81;6283567;20;2863784;-41
2022/01/14 01:26:37;;;;;;;;;73.00;49.50;;;;;-1.86;100.00;100885.00;6283570;20;2877760;-41
2022/01/14 01:31:43;;;;;;;;;65.50;52.00;;;;;-2.00;100.00;100880.50;6279175;20;2860689;-42
2022/01/14 01:34:22;;;;;;;;;75.00;58.00;;;;;-2.62;100.00;100883.38;6278987;20;2500386;-41
2022/01/14 01:36:56;;;;;;;;;74.00;56.00;;;;;-2.98;100.00;100874.16;6281122;20;2500427;-40
2022/01/14 01:39:29;;;;;;;;;70.00;55.00;;;;;-3.02;100.00;100876.75;6286904;20;2492997;-41
2022/01/14 01:42:05;;;;;;;;;69.50;55.00;;;;;-2.87;100.00;100875.19;6276697;20;2499224;-42
2022/01/14 01:44:38;;;;;;;;;76.00;55.50;;;;;-2.61;100.00;100868.47;6282822;20;2871087;-41
2022/01/14 01:47:07;;;;;;;;;68.00;55.00;;;;;-2.46;100.00;100863.38;6280289;20;2500304;-42
2022/01/14 01:49:38;;;;;;;;;73.00;52.50;;;;;-2.12;100.00;100866.34;6279086;20;2500782;-42
2022/01/14 01:52:07;;;;;;;;;68.50;53.00;;;;;-2.13;100.00;100861.94;6277298;20;2518757;-40
2022/01/14 01:54:35;;;;;;;;;66.00;50.00;;;;;-2.08;100.00;100855.88;6275969;20;2494050;-41
2022/01/14 01:57:05;;;;;;;;;69.50;53.50;;;;;-2.04;100.00;100862.03;6280670;20;2859630;-41
2022/01/14 01:59:33;;;;;;;;;69.50;49.50;;;;;-2.01;100.00;100857.66;6276116;20;2500250;-43
2022/01/14 02:02:03;;;;;;;;;69.50;52.50;;;;;-1.94;100.00;100858.59;6278931;20;2487791;-40
2022/01/14 02:04:31;;;;;;;;;64.00;50.00;;;;;-2.26;100.00;100855.69;6279505;20;2503644;-40
2022/01/14 02:07:01;;;;;;;;;79.00;55.33;;;;;-3.15;100.00;100850.31;6281782;20;2885744;-42
2022/01/14 02:09:31;;;;;;;;;75.33;53.33;;;;;-3.12;100.00;100849.47;6313796;20;2889878;-42
2022/01/14 02:12:08;;;;;;;;;78.67;56.67;;;;;-3.22;100.00;100853.72;6310303;20;2894072;-41
2022/01/14 02:23:00;;;;;;;;;62.50;48.50;;;;;-2.45;100.00;100810.81;6281953;20;2845871;-40
2022/01/14 02:25:30;;;;;;;;;76.00;54.50;;;;;-2.38;100.00;100813.50;6278739;20;2870031;-40
2022/01/14 02:28:13;;;;;;;;;82.33;59.33;;;;;-2.55;100.00;100811.59;6281778;20;2897417;-42
2022/01/14 02:30:47;;;;;;;;;74.50;51.50;;;;;-2.43;100.00;100798.53;6309719;20;2883605;-42
2022/01/14 02:33:19;;;;;;;;;77.00;58.00;;;;;-2.44;100.00;100803.81;6279151;20;2882538;-42
2022/01/14 02:35:50;;;;;;;;;72.00;55.00;;;;;-2.37;100.00;100788.94;6277416;20;2500263;-41
2022/01/14 02:38:20;;;;;;;;;76.50;56.50;;;;;-2.59;100.00;100788.75;6280874;20;2873162;-41
2022/01/14 02:40:50;;;;;;;;;57.25;46.25;;;;;-2.46;100.00;100790.63;6278611;20;3614847;-41
2022/01/14 02:43:18;;;;;;;;;80.00;60.50;;;;;-2.60;100.00;100797.53;6312350;20;2880438;-41
2022/01/14 02:45:52;;;;;;;;;71.50;57.50;;;;;-2.50;100.00;100791.50;6277309;20;2500320;-41
2022/01/14 02:48:32;;;;;;;;;74.00;51.50;;;;;-2.38;100.00;100792.47;6279894;20;2882575;-42
2022/01/14 02:51:15;;;;;;;;;58.00;50.50;;;;;-2.60;100.00;100781.75;6276276;20;2851331;-40
2022/01/14 02:53:55;;;;;;;;;64.50;54.00;;;;;-2.53;100.00;100778.28;6274517;20;2495065;-41
2022/01/14 02:56:33;;;;;;;;;73.50;57.00;;;;;-2.43;100.00;100769.63;6273888;20;2498291;-41
2022/01/14 02:59:03;;;;;;;;;69.00;54.00;;;;;-2.39;100.00;100781.06;6272669;20;2496121;-42
2022/01/14 03:01:33;;;;;;;;;70.00;51.50;;;;;-2.47;100.00;100783.63;6272653;20;2878418;-40
2022/01/14 03:04:04;;;;;;;;;79.00;60.00;;;;;-2.48;100.00;100767.81;6276933;20;2883610;-40
2022/01/14 03:06:33;;;;;;;;;75.33;52.00;;;;;-2.32;100.00;100774.09;6276251;20;2883689;-41
2022/01/14 03:09:03;;;;;;;;;65.00;47.00;;;;;-2.56;100.00;100757.22;6311461;20;2862908;-40
2022/01/14 03:11:49;;;;;;;;;68.00;50.50;;;;;-2.56;100.00;100756.34;6278847;20;2875305;-40
2022/01/14 03:14:23;;;;;;;;;72.00;54.00;;;;;-2.39;100.00;100761.78;6279037;20;2877402;-41
2022/01/14 03:16:57;;;;;;;;;70.50;53.00;;;;;-2.64;100.00;100764.16;6275722;20;2500289;-43
2022/01/14 03:19:29;;;;;;;;;74.33;52.00;;;;;-2.72;100.00;100755.34;6278631;20;2885688;-41
2022/01/14 03:22:07;;;;;;;;;65.50;50.00;;;;;-2.60;100.00;100747.56;6309233;20;2864835;-41
2022/01/14 03:27:05;;;;;;;;;65.00;51.00;;;;;-2.66;100.00;100739.59;6278446;20;2874309;-41
2022/01/14 03:29:33;;;;;;;;;68.00;55.00;;;;;-2.68;100.00;100730.84;6277605;20;2500271;-42
2022/01/14 03:32:04;;;;;;;;;72.00;52.50;;;;;-2.70;100.00;100738.72;6275163;20;2498249;-41
2022/01/14 03:34:33;;;;;;;;;73.00;52.50;;;;;-2.71;100.00;100731.72;6278418;20;2875427;-41
2022/01/14 03:37:04;;;;;;;;;71.67;52.00;;;;;-2.77;100.00;100731.63;6277266;20;2891014;-41
2022/01/14 03:39:32;;;;;;;;;71.00;53.50;;;;;-2.84;100.00;100723.66;6307544;20;2508636;-41
2022/01/14 03:42:01;;;;;;;;;66.00;53.00;;;;;-2.97;100.00;100728.81;6278312;20;2498255;-41
2022/01/14 03:44:30;;;;;;;;;64.50;49.50;;;;;-2.77;100.00;100726.38;6279127;20;2858633;-41
2022/01/14 03:46:58;;;;;;;;;71.00;52.50;;;;;-3.18;100.00;100718.09;6280290;20;2865865;-40
2022/01/14 03:49:27;;;;;;;;;66.50;48.00;;;;;-3.24;100.00;100718.88;6278750;20;2868994;-41
2022/01/14 03:51:56;;;;;;;;;66.67;52.33;;;;;-3.26;100.00;100722.38;6280851;20;3602293;-42
2022/01/14 03:54:24;;;;;;;;;73.50;56.00;;;;;-3.30;100.00;100734.56;6280062;20;2493100;-41
2022/01/14 03:56:53;;;;;;;;;78.00;56.00;;;;;-3.43;100.00;100728.28;6282497;20;2878425;-41
2022/01/14 03:59:22;;;;;;;;;67.00;52.50;;;;;-3.18;100.00;100718.09;6285012;20;2861720;-41
2022/01/14 04:01:50;;;;;;;;;67.50;50.50;;;;;-2.94;100.00;100720.97;6280750;20;2508627;-41
2022/01/14 04:04:18;;;;;;;;;76.50;55.00;;;;;-3.24;100.00;100720.63;6280948;20;2500286;-41
2022/01/14 04:06:46;;;;;;;;;67.00;51.00;;;;;-3.10;100.00;100724.31;6280561;20;2499221;-43
2022/01/14 04:09:14;;;;;;;;;72.00;50.50;;;;;-3.26;100.00;100732.91;6285089;20;2881928;-40
2022/01/14 04:11:45;;;;;;;;;82.67;57.00;;;;;-3.78;100.00;100725.25;6283541;20;3646079;-43
2022/01/14 04:17:10;;;;;;;;;91.67;66.00;;;;;-3.88;100.00;100698.00;6312156;20;3658660;-40
2022/01/14 04:19:40;;;;;;;;;97.00;68.00;;;;;-3.96;100.00;100697.00;6312970;20;3653401;-40
2022/01/14 04:22:09;;;;;;;;;94.67;71.33;;;;;-4.04;100.00;100702.16;6315022;20;2894216;-40
2022/01/14 04:24:39;;;;;;;;;105.00;71.67;;;;;-3.63;100.00;100698.31;6314315;20;3678362;-40
2022/01/14 04:27:08;;;;;;;;;98.00;77.00;;;;;-3.90;100.00;100689.22;6314205;20;2893998;-41
2022/01/14 04:29:37;;;;;;;;;95.67;65.00;;;;;-3.80;100.00;100684.97;6284804;20;2896441;-40
2022/01/14 04:32:08;;;;;;;;;108.33;77.00;;;;;-4.34;100.00;100689.50;6314306;20;3678396;-39
2022/01/14 04:34:39;;;;;;;;;109.00;76.33;;;;;-3.67;100.00;100692.13;6280957;20;3681600;-40
2022/01/14 04:37:09;;;;;;;;;99.00;71.67;;;;;-3.97;100.00;100688.28;6314881;20;3661832;-41
2022/01/14 04:39:39;;;;;;;;;98.33;70.67;;;;;-3.98;100.00;100681.28;6316239;20;3648408;-41
2022/01/14 04:42:09;;;;;;;;;87.33;65.67;;;;;-4.18;100.00;100674.88;6316257;20;2902323;-40
2022/01/14 04:44:38;;;;;;;;;87.67;64.67;;;;;-4.02;100.00;100663.72;6315121;20;3640856;-43
2022/01/14 04:47:32;;;;;;;;;95.00;66.00;;;;;-3.87;100.00;100664.75;6314771;20;2900359;-41
2022/01/14 04:50:02;;;;;;;;;81.00;61.00;;;;;-3.85;100.00;100669.16;6316245;20;2890876;-40
2022/01/14 04:52:32;;;;;;;;;92.00;66.33;;;;;-4.16;100.00;100653.88;6314352;20;3657501;-40
2022/01/14 04:55:00;;;;;;;;;86.50;68.50;;;;;-4.24;100.00;100651.16;6315093;20;2886692;-40
2022/01/14 04:57:31;;;;;;;;;90.67;69.33;;;;;-4.43;100.00;100658.75;6279907;20;2894100;-42
2022/01/14 05:00:01;;;;;;;;;95.67;72.33;;;;;-4.12;100.00;100653.97;6315226;20;2890877;-40
2022/01/14 05:02:31;;;;;;;;;94.67;72.00;;;;;-4.68;100.00;100665.38;6311460;20;2904683;-40
2022/01/14 05:05:01;;;;;;;;;93.33;69.67;;;;;-4.81;100.00;100662.53;6313705;20;3679402;-41
2022/01/14 05:07:31;;;;;;;;;91.00;64.33;;;;;-4.73;100.00;100666.16;6313649;20;3659673;-41
2022/01/14 05:12:38;;;;;;;;;82.00;62.00;;;;;-4.65;100.00;100648.84;6309844;20;2500323;-41
2022/01/14 05:15:09;;;;;;;;;89.33;63.00;;;;;-4.79;100.00;100651.25;6283739;20;3653367;-40
2022/01/14 05:17:37;;;;;;;;;78.00;60.50;;;;;-4.84;100.00;100650.28;6306898;20;2500263;-41
2022/01/14 05:20:08;;;;;;;;;91.33;66.00;;;;;-4.87;100.00;100660.69;6278889;20;3662778;-40
2022/01/14 05:22:38;;;;;;;;;89.00;61.00;;;;;-4.70;100.00;100656.59;6314475;20;2912876;-40
2022/01/14 05:25:10;;;;;;;;;88.33;65.33;;;;;-4.46;100.00;100656.09;6314893;20;2895101;-41
2022/01/14 05:27:38;;;;;;;;;87.50;64.50;;;;;-4.42;100.00;100657.03;6308022;20;2500308;-39
2022/01/14 05:30:11;;;;;;;;;81.50;60.50;;;;;-4.42;100.00;100651.81;6277289;20;2500384;-41
2022/01/14 05:32:47;;;;;;;;;89.00;69.00;;;;;-4.67;100.00;100651.41;6280003;20;2500248;-41
2022/01/14 05:35:27;;;;;;;;;91.00;69.00;;;;;-4.77;100.00;100641.66;6278192;20;3653417;-41
2022/01/14 05:37:55;;;;;;;;;83.00;62.00;;;;;-4.91;100.00;100640.56;6309177;20;2500373;-40
2022/01/14 05:40:26;;;;;;;;;86.50;66.00;;;;;-4.38;100.00;100650.09;6279815;20;2891150;-40
2022/01/14 05:42:59;;;;;;;;;93.00;67.67;;;;;-4.60;100.00;100651.53;6281037;20;2892022;-40
2022/01/14 05:45:29;;;;;;;;;96.00;69.33;;;;;-4.90;100.00;100637.97;6311962;20;3659617;-40
2022/01/14 05:47:59;;;;;;;;;93.67;70.00;;;;;-4.86;100.00;100649.38;6312222;20;3651259;-40
2022/01/14 05:50:28;;;;;;;;;91.00;64.00;;;;;-5.26;100.00;100651.31;6312593;20;2902422;-42
2022/01/14 05:52:58;;;;;;;;;88.33;62.67;;;;;-5.09;100.00;100652.47;6314578;20;2903418;-41
2022/01/14 05:55:28;;;;;;;;;90.00;66.00;;;;;-5.40;100.00;100640.56;6313432;20;3648125;-41
2022/01/14 05:57:56;;;;;;;;;91.00;69.00;;;;;-5.15;100.00;100646.25;6311911;20;2892982;-40
2022/01/14 06:00:26;;;;;;;;;96.67;68.67;;;;;-5.30;100.00;100646.84;6280865;20;3661779;-41
2022/01/14 06:02:54;;;;;;;;;78.50;63.50;;;;;-4.82;100.00;100651.16;6311238;20;2502377;-40
2022/01/14 06:05:23;;;;;;;;;92.00;67.80;;;;;-4.67;100.00;100646.19;6280715;20;3649265;-40
2022/01/14 06:07:53;;;;;;;;;97.00;72.00;;;;;-4.90;100.00;100650.16;6280280;20;2894088;-47
2022/01/14 06:10:23;;;;;;;;;90.33;64.67;;;;;-5.00;100.00;100649.16;6313949;20;3671087;-40
2022/01/14 06:12:50;;;;;;;;;86.00;65.00;;;;;-5.15;100.00;100651.50;6308765;20;2500405;-40
2022/01/14 06:15:20;;;;;;;;;98.67;71.33;;;;;-5.14;100.00;100650.63;6280028;20;3670099;-42
2022/01/14 06:17:50;;;;;;;;;115.67;94.33;;;;;-5.58;100.00;100648.97;6312747;20;3687720;-40
2022/01/14 06:20:20;;;;;;;;;114.00;83.00;;;;;-5.67;100.00;100646.16;6311417;20;3695045;-40
2022/01/14 06:22:49;;;;;;;;;98.20;72.20;;;;;-5.23;100.00;100653.97;6276961;20;3650324;-41
2022/01/14 06:25:18;;;;;;;;;86.00;69.00;;;;;-5.47;100.00;100649.19;6280073;20;2880456;-42
2022/01/14 06:27:47;;;;;;;;;98.00;71.00;;;;;-5.52;100.00;100636.00;6280239;20;3542337;-40
2022/01/14 06:30:22;;;;;;;;;88.20;66.20;;;;;-5.46;100.00;100631.75;6310046;20;3645019;-40
2022/01/14 06:32:54;;;;;;;;;109.33;84.00;;;;;-5.23;100.00;100640.00;6277571;20;3673115;-40
2022/01/14 06:35:25;;;;;;;;;105.33;75.67;;;;;-5.13;100.00;100640.19;6310785;20;3678367;-40
2022/01/14 06:37:57;;;;;;;;;104.33;76.00;;;;;-5.19;100.00;100636.56;6312951;20;3667952;-42
2022/01/14 06:40:31;;;;;;;;;108.33;80.00;;;;;-5.04;100.00;100651.69;6311587;20;3676278;-40
2022/01/14 06:43:02;;;;;;;;;111.00;82.00;;;;;-5.36;100.00;100644.13;6315342;20;3679462;-41
2022/01/14 06:45:33;;;;;;;;;106.00;81.00;;;;;-4.79;100.00;100646.00;6313626;20;3672216;-41
2022/01/14 06:48:06;;;;;;;;;108.67;78.33;;;;;-4.76;100.00;100640.81;6311839;20;3682581;-41
2022/01/14 06:50:37;;;;;;;;;115.33;93.00;;;;;-4.65;100.00;100641.84;6311688;20;3696164;-41
2022/01/14 06:53:07;;;;;;;;;119.00;94.67;;;;;-4.69;100.00;100633.91;6312043;20;3705424;-40
2022/01/14 06:55:36;;;;;;;;;135.00;115.67;;;;;-4.67;100.00;100640.94;6278389;20;3700252;-40
2022/01/14 06:58:06;;;;;;;;;110.33;87.33;;;;;-4.61;100.00;100640.13;6281180;20;3677446;-40
2022/01/14 07:00:36;;;;;;;;;133.67;98.00;;;;;-4.81;100.00;100641.59;6311515;20;3700268;-40
2022/01/14 07:03:06;;;;;;;;;133.00;103.00;;;;;-4.41;100.00;100633.47;6279026;20;3707694;-40
2022/01/14 07:05:36;;;;;;;;;125.67;102.00;;;;;-4.88;100.00;100617.03;6280441;20;3704563;-40
2022/01/14 07:08:06;;;;;;;;;119.00;103.00;;;;;-4.97;100.00;100604.69;6281956;20;3697151;-39
2022/01/14 07:10:37;;;;;;;;;128.00;106.67;;;;;-4.65;100.00;100607.78;6277102;20;3727333;-39
2022/01/14 07:13:06;;;;;;;;;140.67;114.33;;;;;-4.54;100.00;100609.69;6280574;20;3704433;-39
2022/01/14 07:15:36;;;;;;;;;152.00;115.33;;;;;-4.45;100.00;100617.66;6275730;20;3715969;-40
2022/01/14 07:18:06;;;;;;;;;142.83;112.17;;;;;-4.51;100.00;100622.81;6278807;20;4482518;-39
2022/01/14 07:20:37;;;;;;;;;139.00;112.00;;;;;-4.24;100.00;100628.47;6308150;20;3713793;-40
2022/01/14 07:23:07;;;;;;;;;121.67;94.33;;;;;-4.26;100.00;100632.81;6276560;20;4471087;-39
2022/01/14 07:25:39;;;;;;;;;128.33;103.67;;;;;-4.25;100.00;100625.81;6313013;20;3705447;-39
2022/01/14 07:28:08;;;;;;;;;128.67;107.00;;;;;-4.00;100.00;100630.53;6285814;20;3700201;-39
2022/01/14 07:30:38;;;;;;;;;130.33;106.00;;;;;-4.11;100.00;100631.25;6284574;20;3694387;-42
2022/01/14 07:33:08;;;;;;;;;114.67;93.33;;;;;-3.95;100.00;100617.44;6289264;20;3699569;-40
2022/01/14 07:35:39;;;;;;;;;129.33;102.00;;;;;-4.00;100.00;100616.53;6286010;20;3710676;-39
2022/01/14 07:38:09;;;;;;;;;145.00;116.33;;;;;-3.89;100.00;100612.31;6288650;20;3713734;-40
2022/01/14 07:40:39;;;;;;;;;129.67;97.67;;;;;-3.59;100.00;100606.50;6285497;20;3702281;-40
2022/01/14 07:43:09;;;;;;;;;112.00;91.67;;;;;-3.36;100.00;100600.63;6288285;20;3700250;-40
2022/01/14 07:45:39;;;;;;;;;135.00;109.33;;;;;-3.37;100.00;100606.72;6286464;20;3693036;-39
2022/01/14 07:48:09;;;;;;;;;138.00;107.67;;;;;-3.52;100.00;100602.22;6287547;20;3707520;-40
2022/01/14 07:50:38;;;;;;;;;87.67;66.00;;;;;-3.27;100.00;100613.81;6287837;20;3627316;-38
2022/01/14 07:53:08;;;;;;;;;115.33;93.00;;;;;-3.45;100.00;100608.38;6288796;20;3695030;-39
2022/01/14 07:55:38;;;;;;;;;129.00;97.33;;;;;-3.48;100.00;100603.97;6286614;20;3699178;-40
2022/01/14 07:58:08;;;;;;;;;108.33;78.00;;;;;-3.17;100.00;100604.28;6287915;20;3677317;-39
2022/01/14 08:00:39;;;;;;;;;105.00;77.00;;;;;-3.07;100.00;100613.13;6286564;20;2915049;-40
2022/01/14 08:03:09;;;;;;;;;99.33;73.33;;;;;-3.16;100.00;100611.28;6318311;20;3663772;-39
2022/01/14 08:05:39;;;;;;;;;108.33;75.67;;;;;-3.02;100.00;100603.56;6320131;20;3676343;-41
2022/01/14 08:08:09;;;;;;;;;105.00;78.00;;;;;-3.04;100.00;100605.28;6319146;20;3672095;-40
2022/01/14 08:10:39;;;;;;;;;110.00;81.67;;;;;-3.02;100.00;100620.19;6320599;20;3679409;-41
2022/01/14 08:13:08;;;;;;;;;107.67;78.33;;;;;-2.80;100.00;100612.47;6286833;20;3683638;-39
2022/01/14 08:15:38;;;;;;;;;108.33;79.33;;;;;-2.68;100.00;100615.19;6285389;20;3686752;-39
2022/01/14 08:18:09;;;;;;;;;101.33;72.00;;;;;-2.59;100.00;100604.75;6286539;20;3661749;-40
2022/01/14 08:20:38;;;;;;;;;110.50;77.25;;;;;-2.91;100.00;100600.13;6322711;20;4442929;-40
2022/01/14 08:23:08;;;;;;;;;115.67;88.67;;;;;-2.72;100.00;100606.41;6319123;20;3692069;-40
2022/01/14 08:25:38;;;;;;;;;111.33;87.00;;;;;-2.23;100.00;100609.34;6286600;20;3685642;-40
2022/01/14 08:28:08;;;;;;;;;129.67;98.33;;;;;-2.29;100.00;100597.91;6285538;20;3691909;-40
2022/01/14 08:30:38;;;;;;;;;117.00;95.33;;;;;-2.20;100.00;100603.22;6285763;20;3690841;-40
2022/01/14 08:33:07;;;;;;;;;124.00;96.00;;;;;-1.92;100.00;100592.81;6284779;20;3697122;-40
2022/01/14 08:35:37;;;;;;;;;121.00;88.67;;;;;-2.26;100.00;100582.16;6285733;20;3695139;-40
2022/01/14 08:38:07;;;;;;;;;115.67;91.00;;;;;-1.93;100.00;100577.91;6288228;20;3686746;-41
2022/01/14 08:40:37;;;;;;;;;105.00;75.00;;;;;-1.77;100.00;100582.34;6284623;20;3683581;-41
2022/01/14 08:43:08;;;;;;;;;118.67;100.00;;;;;-1.46;100.00;100583.28;6286263;20;3706467;-40
2022/01/14 08:45:38;;;;;;;;;119.33;92.00;;;;;-1.46;99.62;100574.50;6285682;20;3688756;-40
2022/01/14 08:48:08;;;;;;;;;116.33;92.33;;;;;-1.46;99.43;100571.88;6287637;20;3692950;-41
2022/01/14 08:50:40;;;;;;;;;140.50;110.25;;;;;-1.70;100.00;100560.44;6285326;20;3724210;-41
2022/01/14 08:53:13;;;;;;;;;145.67;109.67;;;;;-1.37;100.00;100556.06;6285343;20;3720100;-41
2022/01/14 08:55:43;;;;;;;;;129.67;105.33;;;;;-1.16;99.81;100556.13;6285014;20;3702346;-41
2022/01/14 08:58:13;;;;;;;;;119.33;95.67;;;;;-0.99;99.60;100549.94;6284277;20;3698141;-40
2022/01/14 09:00:43;;;;;;;;;133.67;108.33;;;;;-1.06;98.26;100551.69;6286710;20;3708550;-40
2022/01/14 09:03:13;;;;;;;;;126.00;92.67;;;;;-0.78;97.19;100551.69;6286423;20;3711702;-40
2022/01/14 09:05:43;;;;;;;;;127.00;104.67;;;;;-0.58;96.19;100554.28;6285997;20;3717916;-42
2022/01/14 09:08:13;;;;;;;;;142.50;119.50;;;;;-0.76;97.13;100555.22;6287387;20;4479346;-41
2022/01/14 09:10:43;;;;;;;;;140.33;107.67;;;;;-0.49;96.46;100567.47;6283275;20;3709722;-40
2022/01/14 09:13:13;;;;;;;;;132.67;102.67;;;;;-0.72;96.22;100564.84;6283925;20;3704368;-40
2022/01/14 09:15:44;;;;;;;;;120.33;94.00;;;;;-0.52;97.47;100559.56;6282571;20;3681466;-41
2022/01/14 09:18:13;;;;;;;;;130.67;103.33;;;;;-0.47;97.33;100556.03;6286660;20;3720124;-49
2022/01/14 09:20:44;;;;;;;;;140.00;107.00;;;;;-0.27;96.84;100537.47;6284071;20;3718543;-41
2022/01/14 09:23:23;;;;;;;;;123.00;106.50;;;;;-0.37;96.80;100538.41;6286582;20;3702438;-40
2022/01/14 09:25:53;;;;;;;;;93.00;69.67;;;;;-0.27;97.02;100537.47;6283104;20;3643987;-41
2022/01/14 09:28:24;;;;;;;;;128.75;101.25;;;;;-0.39;97.17;100540.19;6317260;20;3699237;-50
2022/01/14 09:30:54;;;;;;;;;135.67;101.67;;;;;-0.03;97.04;100538.25;6317575;20;3713939;-41
2022/01/14 09:33:25;;;;;;;;;131.00;107.25;;;;;0.47;94.59;100538.84;6288391;20;3716944;-40
2022/01/14 09:35:55;;;;;;;;;135.50;109.00;;;;;0.59;93.74;100531.72;6283998;20;3728468;-40
2022/01/14 09:38:26;;;;;;;;;145.00;116.75;;;;;0.54;94.21;100520.31;6283517;20;3712820;-39
2022/01/14 09:40:57;;;;;;;;;105.67;79.00;;;;;0.57;95.04;100515.00;6282411;20;3666940;-41
2022/01/14 09:43:27;;;;;;;;;119.67;97.33;;;;;0.86;94.58;100517.41;6283578;20;3700239;-41
2022/01/14 09:46:08;;;;;;;;;116.00;96.00;;;;;0.58;95.00;100515.88;6283160;20;3696593;-40
2022/01/14 09:48:40;;;;;;;;;121.67;98.33;;;;;0.85;94.57;100504.22;6284727;20;3697115;-41
2022/01/14 09:51:10;;;;;;;;;118.33;99.67;;;;;1.07;94.66;100500.47;6283243;20;3693943;-41
2022/01/14 09:53:40;;;;;;;;;108.00;86.00;;;;;1.14;95.10;100500.44;6284159;20;3689783;-40
2022/01/14 09:56:13;;;;;;;;;131.00;107.00;;;;;1.06;94.09;100503.16;6282917;20;3707526;-40
2022/01/14 09:58:49;;;;;;;;;154.00;127.00;;;;;1.24;93.58;100496.81;6285270;20;4508895;-42
2022/01/14 10:01:24;;;;;;;;;217.75;166.50;;;;;1.91;91.54;100488.03;6283999;20;4477700;-42
2022/01/14 10:04:02;;;;;;;;;128.25;103.25;;;;;1.54;91.91;100488.50;6317861;20;3712924;-40
2022/01/14 10:06:58;;;;;;;;;131.67;103.00;;;;;1.83;92.72;100481.97;6284672;20;3720189;-40
2022/01/14 10:09:39;;;;;;;;;139.67;110.33;;;;;2.03;91.35;100476.44;6285154;20;3702350;-41
2022/01/14 10:12:17;;;;;;;;;124.50;101.25;;;;;2.13;91.24;100479.78;6284302;20;3715825;-40
2022/01/14 10:15:09;;;;;;;;;90.67;70.00;;;;;2.29;91.74;100468.09;6317024;20;3628373;-41
2022/01/14 10:17:45;;;;;;;;;88.67;68.33;;;;;2.28;92.04;100461.03;6314539;20;3632560;-40
2022/01/14 10:20:20;;;;;;;;;132.00;102.75;;;;;2.19;91.12;100461.19;6313706;20;3710725;-40
2022/01/14 10:22:50;;;;;;;;;99.33;72.67;;;;;2.23;91.38;100451.41;6283340;20;3668943;-41
2022/01/14 10:25:21;;;;;;;;;91.67;73.33;;;;;2.63;90.97;100446.34;6282940;20;2887833;-40
2022/01/14 10:27:54;;;;;;;;;100.75;79.75;;;;;2.35;91.51;100449.44;6316305;20;3699170;-42
2022/01/14 10:30:33;;;;;;;;;89.00;70.00;;;;;2.63;91.08;100441.03;6313678;20;3641896;-42
2022/01/14 10:33:08;;;;;;;;;90.67;69.67;;;;;2.55;91.05;100445.59;6315792;20;3627289;-41
2022/01/14 10:35:46;;;;;;;;;92.00;70.00;;;;;2.73;90.61;100439.09;6316761;20;2831499;-41
2022/01/14 10:38:22;;;;;;;;;88.33;68.33;;;;;2.60;90.95;100438.44;6284488;20;3653368;-40
2022/01/14 10:40:57;;;;;;;;;84.67;64.67;;;;;2.83;90.10;100430.97;6315375;20;3656454;-41
2022/01/14 10:43:35;;;;;;;;;80.67;61.00;;;;;2.99;89.70;100431.56;6316673;20;2884777;-41
2022/01/14 10:46:10;;;;;;;;;79.33;61.00;;;;;3.07;89.76;100418.16;6313721;20;3636885;-42
2022/01/14 10:48:43;;;;;;;;;81.33;61.33;;;;;3.04;89.57;100412.91;6316320;20;3643336;-41
2022/01/14 10:51:17;;;;;;;;;82.33;62.33;;;;;2.92;89.88;100399.88;6314986;20;3641974;-42
2022/01/14 10:53:53;;;;;;;;;83.67;61.33;;;;;3.27;89.36;100394.75;6314168;20;3660687;-40
2022/01/14 10:56:25;;;;;;;;;73.00;58.00;;;;;3.31;88.79;100390.25;6282910;20;2878366;-42
2022/01/14 10:58:58;;;;;;;;;84.33;60.00;;;;;3.59;87.64;100387.91;6283916;20;3668041;-42
2022/01/14 11:01:30;;;;;;;;;90.33;68.33;;;;;3.54;87.66;100397.75;6312819;20;3653382;-41
2022/01/14 11:04:11;;;;;;;;;78.67;59.00;;;;;3.52;88.64;100394.25;6314013;20;3635669;-41
2022/01/14 11:06:42;;;;;;;;;79.00;59.33;;;;;3.68;87.82;100387.69;6314918;20;3639804;-42
2022/01/14 11:09:22;;;;;;;;;81.33;62.00;;;;;3.90;87.22;100389.88;6316397;20;3641975;-41
2022/01/14 11:11:51;;;;;;;;;80.33;59.67;;;;;3.97;86.02;100386.16;6313883;20;3648189;-40
2022/01/14 11:14:21;;;;;;;;;78.67;58.67;;;;;4.01;86.26;100377.22;6316528;20;3644057;-41
2022/01/14 11:16:52;;;;;;;;;71.00;54.67;;;;;4.06;85.68;100363.81;6312111;20;2873189;-41
2022/01/14 11:19:24;;;;;;;;;83.33;60.33;;;;;3.97;85.87;100360.44;6313786;20;3661669;-41
2022/01/14 11:24:48;;;;;;;;;80.00;59.33;;;;;4.56;85.18;100354.56;6312411;20;3643975;-43
2022/01/14 11:27:18;;;;;;;;;72.00;53.00;;;;;4.36;84.95;100343.56;6314037;20;2775282;-41
2022/01/14 11:29:49;;;;;;;;;79.67;60.33;;;;;4.57;84.38;100345.66;6283852;20;3647185;-42
2022/01/14 11:32:19;;;;;;;;;74.00;58.00;;;;;4.52;84.53;100331.63;6313326;20;3618120;-42
2022/01/14 11:34:50;;;;;;;;;79.00;56.67;;;;;4.58;84.10;100335.91;6315348;20;3650301;-41
2022/01/14 11:37:35;;;;;;;;;85.67;63.33;;;;;4.54;84.32;100327.16;6310345;20;3638786;-40
2022/01/14 11:40:12;;;;;;;;;84.33;62.67;;;;;4.68;84.29;100320.56;6315861;20;3641906;-44